Time;durP1;ratioP1;P1;durP2;ratioP2;P2;SDS_P1;SDS_P2;PMS_P1;PMS_P2;Temp;Humidity;BMP_temperature;BMP_pressure;BME280_temperature;BME280_humidity;BME280_pressure;Samples;Min_cycle;Max_cycle;Signal;HPM_P1;HPM_P2
2022/06/23 00:02:59;;;;;;;12.02;7.60;;;;;;;18.48;86.89;97364.78;10443717;28;20094;-57
2022/06/23 00:08:00;;;;;;;9.90;6.70;;;;;;;18.24;85.74;97352.59;10439885;28;20051;-58
2022/06/23 00:12:59;;;;;;;16.08;7.95;;;;;;;18.19;85.56;97353.59;10457265;28;20063;-57
2022/06/23 00:18:02;;;;;;;17.45;11.02;;;;;;;18.00;89.16;97365.72;10456024;28;20074;-58
2022/06/23 00:23:16;;;;;;;20.08;12.00;;;;;;;17.97;89.62;97344.84;10457365;28;20056;-58
2022/06/23 00:28:35;;;;;;;17.33;11.70;;;;;;;17.91;90.35;97366.06;10454371;28;20051;-58
2022/06/23 00:33:40;;;;;;;20.20;11.98;;;;;;;17.90;90.79;97361.75;10456671;28;20628;-58
2022/06/23 00:38:40;;;;;;;19.48;10.65;;;;;;;17.94;90.65;97360.69;10455256;28;20086;-58
2022/06/23 00:43:44;;;;;;;14.25;8.73;;;;;;;17.97;89.67;97357.97;10453530;28;20063;-58
2022/06/23 00:48:49;;;;;;;11.88;8.13;;;;;;;17.95;88.90;97352.78;10430036;28;20063;-58
2022/06/23 00:53:57;;;;;;;13.98;8.93;;;;;;;17.94;88.72;97310.81;10455685;28;20056;-58
2022/06/23 00:59:02;;;;;;;14.07;9.20;;;;;;;17.95;88.48;97318.63;10452581;28;20059;-57
2022/06/23 01:04:17;;;;;;;20.95;10.73;;;;;;;17.96;89.32;97330.00;10474571;28;20063;-58
2022/06/23 01:09:28;;;;;;;18.50;11.50;;;;;;;17.96;89.65;97325.63;10453950;28;20072;-57
2022/06/23 01:14:49;;;;;;;19.10;11.50;;;;;;;17.71;90.65;97283.66;10435291;28;20068;-58
2022/06/23 01:20:03;;;;;;;16.52;10.40;;;;;;;17.94;90.13;97316.06;10443795;28;20082;-58
2022/06/23 01:25:29;;;;;;;18.92;11.23;;;;;;;17.63;92.79;97311.91;10455671;28;20064;-58
2022/06/23 01:30:40;;;;;;;16.88;11.20;;;;;;;17.49;94.11;97295.81;10448637;28;20063;-57
2022/06/23 01:36:01;;;;;;;23.85;12.55;;;;;;;17.29;94.46;97296.56;10455791;28;20452;-57
2022/06/23 01:41:17;;;;;;;20.48;12.68;;;;;;;17.21;94.66;97298.56;10418609;28;20068;-58
2022/06/23 01:46:22;;;;;;;23.42;13.25;;;;;;;17.14;95.23;97287.44;10421603;28;20063;-57
2022/06/23 01:51:40;;;;;;;26.73;14.27;;;;;;;17.14;95.05;97261.22;10464418;28;20899;-57
2022/06/23 01:57:01;;;;;;;20.17;12.98;;;;;;;17.03;95.10;97239.78;10464656;28;20056;-57
2022/06/23 02:02:18;;;;;;;20.27;12.23;;;;;;;16.99;95.24;97267.88;10473646;28;20023;-57
2022/06/23 02:07:52;;;;;;;21.23;12.95;;;;;;;16.90;95.38;97273.41;10493441;28;20031;-58
2022/06/23 02:13:01;;;;;;;17.67;10.98;;;;;;;16.89;94.47;97262.09;10454072;28;20055;-57
2022/06/23 02:18:05;;;;;;;;;;;;;;;16.91;94.16;97265.50;10464303;28;20052;-57
2022/06/23 02:23:28;;;;;;;18.30;11.07;;;;;;;16.87;93.58;97258.66;10446839;28;19931;-58
2022/06/23 02:28:40;;;;;;;19.50;10.60;;;;;;;16.83;93.68;97271.91;10443927;28;20056;-57
2022/06/23 02:33:52;;;;;;;22.00;10.75;;;;;;;16.68;94.16;97261.00;10422430;28;20457;-57
2022/06/23 02:38:58;;;;;;;20.63;11.63;;;;;;;16.59;94.23;97258.69;10445306;28;20060;-57
2022/06/23 02:44:15;;;;;;;26.17;12.20;;;;;;;16.55;94.85;97285.03;10463376;28;20059;-57
2022/06/23 02:49:38;;;;;;;23.00;11.75;;;;;;;16.36;96.37;97293.47;10456061;28;20056;-57
2022/06/23 02:54:48;;;;;;;20.23;12.70;;;;;;;16.35;96.57;97294.41;10459166;28;20078;-57
2022/06/23 03:00:02;;;;;;;20.80;11.35;;;;;;;16.27;96.53;97304.25;10460362;28;20453;-57
2022/06/23 03:05:20;;;;;;;19.67;11.10;;;;;;;16.21;96.67;97312.31;10484692;28;20062;-57
2022/06/23 03:10:27;;;;;;;19.95;11.77;;;;;;;16.27;96.42;97301.63;10459294;28;20063;-57
2022/06/23 03:15:55;;;;;;;19.63;12.07;;;;;;;16.35;96.26;97312.72;10448934;28;20059;-58
2022/06/23 03:21:17;;;;;;;16.63;10.82;;;;;;;16.47;95.52;97311.50;10436018;28;20056;-57
2022/06/23 03:26:27;;;;;;;15.82;8.57;;;;;;;16.51;94.16;97300.88;10458011;28;20066;-57
2022/06/23 03:31:32;;;;;;;13.18;7.10;;;;;;;16.60;93.11;97288.34;10458716;28;20443;-58
2022/06/23 03:36:51;;;;;;;14.18;6.95;;;;;;;16.70;91.69;97287.16;10457788;28;20056;-57
2022/06/23 03:41:53;;;;;;;;;;;;;;;16.76;91.38;97291.34;10458990;28;20068;-58
2022/06/23 03:46:55;;;;;;;24.05;12.50;;;;;;;16.63;92.83;97290.88;10436852;28;20438;-57
2022/06/23 03:51:58;;;;;;;19.95;12.98;;;;;;;16.54;93.97;97291.19;10416161;28;20063;-57
2022/06/23 03:57:04;;;;;;;21.80;12.50;;;;;;;16.61;93.64;97283.09;10436825;28;20447;-57
2022/06/23 04:02:13;;;;;;;22.17;11.40;;;;;;;16.69;93.01;97281.06;10466378;28;20066;-58
2022/06/23 04:07:28;;;;;;;19.35;10.63;;;;;;;16.89;91.97;97288.28;10473993;28;20083;-58
2022/06/23 04:12:29;;;;;;;12.98;8.95;;;;;;;16.99;90.41;97293.22;10457029;28;20590;-58
2022/06/23 04:17:54;;;;;;;12.10;8.18;;;;;;;16.99;88.75;97298.47;10430654;28;20055;-57
2022/06/23 04:23:22;;;;;;;14.40;8.40;;;;;;;17.18;87.76;97304.78;10414633;28;20067;-57
2022/06/23 04:28:30;;;;;;;19.15;9.18;;;;;;;17.35;86.48;97296.31;10446799;28;20079;-57
2022/06/23 04:33:29;;;;;;;13.82;9.18;;;;;;;17.51;86.02;97302.72;10437955;28;20083;-58
2022/06/23 04:38:33;;;;;;;13.35;9.73;;;;;;;17.71;84.99;97306.41;10454898;28;20066;-57
2022/06/23 04:43:41;;;;;;;15.57;8.75;;;;;;;17.94;84.44;97302.94;10471975;28;20069;-57
2022/06/23 04:48:40;;;;;;;12.05;8.45;;;;;;;18.22;84.07;97291.38;10443664;28;20459;-58
2022/06/23 04:53:46;;;;;;;14.35;8.45;;;;;;;18.47;83.44;97297.38;10454680;28;20487;-57
2022/06/23 04:58:56;;;;;;;13.93;8.35;;;;;;;18.67;82.92;97269.47;10458271;28;20055;-57
2022/06/23 05:03:58;;;;;;;16.70;8.32;;;;;;;18.95;82.43;97283.19;10454282;28;20078;-57
2022/06/23 05:09:09;;;;;;;13.75;8.50;;;;;;;19.22;80.23;97288.16;10424943;28;20039;-57
2022/06/23 05:14:24;;;;;;;13.13;7.78;;;;;;;19.35;76.33;97291.13;10489820;28;20062;-57
2022/06/23 05:19:34;;;;;;;13.65;8.73;;;;;;;18.93;80.84;97308.69;10414148;28;20078;-57
2022/06/23 05:24:41;;;;;;;14.77;8.95;;;;;;;18.72;82.13;97309.56;10484350;28;20526;-58
2022/06/23 05:29:50;;;;;;;15.05;8.98;;;;;;;18.55;82.42;97339.09;10481492;28;20071;-58
2022/06/23 05:35:07;;;;;;;15.95;9.00;;;;;;;17.93;84.78;97383.47;10465761;28;20059;-58
2022/06/23 05:40:12;;;;;;;19.08;9.05;;;;;;;17.67;88.57;97462.25;10441932;28;20840;-57
2022/06/23 05:45:19;;;;;;;16.00;8.13;;;;;;;17.13;90.66;97505.97;10466541;28;20075;-58
2022/06/23 05:50:40;;;;;;;19.08;8.32;;;;;;;17.01;91.37;97558.78;10477708;28;20054;-58
2022/06/23 05:55:46;;;;;;;20.33;10.45;;;;;;;16.59;93.75;97624.59;10454322;28;20059;-58
2022/06/23 06:00:54;;;;;;;15.35;9.15;;;;;;;16.46;95.57;97711.34;10453236;28;20078;-58
2022/06/23 06:05:56;;;;;;;22.58;9.90;;;;;;;16.35;96.81;97634.81;10437721;28;20533;-58
2022/06/23 06:10:56;;;;;;;17.25;7.68;;;;;;;16.15;95.34;97650.19;10485301;28;20579;-58
2022/06/23 06:15:58;;;;;;;13.65;7.63;;;;;;;15.99;96.46;97565.94;10435939;28;20459;-58
2022/06/23 06:21:00;;;;;;;14.25;8.43;;;;;;;16.00;97.91;97504.84;10448013;28;20059;-58
2022/06/23 06:26:00;;;;;;;15.98;10.15;;;;;;;16.04;99.51;97481.19;10469684;28;20063;-58
2022/06/23 06:31:01;;;;;;;19.08;10.05;;;;;;;16.10;100.00;97443.50;10459017;28;20090;-58
2022/06/23 06:36:00;;;;;;;17.42;10.52;;;;;;;16.07;100.00;97423.50;10454102;28;20062;-58
2022/06/23 06:40:59;;;;;;;;;;;;;;;16.19;100.00;97458.94;10501003;28;20024;-58
2022/06/23 06:45:58;;;;;;;15.47;9.87;;;;;;;16.09;100.00;97454.84;10440156;28;20394;-58
2022/06/23 06:51:06;;;;;;;17.95;11.32;;;;;;;16.23;100.00;97428.28;10501174;28;20066;-58
2022/06/23 06:56:14;;;;;;;16.48;10.13;;;;;;;16.30;100.00;97411.50;10494170;28;20063;-58
2022/06/23 07:01:19;;;;;;;15.55;9.38;;;;;;;16.29;100.00;97415.03;10472724;28;20066;-58
2022/06/23 07:06:34;;;;;;;11.98;7.68;;;;;;;16.08;100.00;97409.50;10456122;28;20066;-58
2022/06/23 07:11:44;;;;;;;15.43;9.00;;;;;;;16.11;100.00;97437.34;10453720;28;20051;-58
2022/06/23 07:16:59;;;;;;;15.32;9.55;;;;;;;16.06;100.00;97523.84;10460049;28;20059;-58
2022/06/23 07:22:20;;;;;;;12.23;7.43;;;;;;;15.99;100.00;97539.75;10416102;28;20072;-58
2022/06/23 07:27:19;;;;;;;16.50;8.63;;;;;;;15.71;100.00;97582.28;10481103;28;20066;-58
2022/06/23 07:32:36;;;;;;;;;;;;;;;15.84;100.00;97588.97;10445248;28;20040;-59
2022/06/23 07:37:44;;;;;;;12.77;8.32;;;;;;;15.94;100.00;97520.72;10416149;28;19959;-58
2022/06/23 07:42:55;;;;;;;14.30;8.50;;;;;;;16.32;100.00;97526.66;10432796;28;20058;-58
2022/06/23 07:47:55;;;;;;;14.65;8.85;;;;;;;16.56;100.00;97436.94;10480771;28;20054;-58
2022/06/23 07:52:55;;;;;;;12.70;8.93;;;;;;;16.74;100.00;97427.63;10491967;28;20063;-58
2022/06/23 07:57:55;;;;;;;10.95;7.30;;;;;;;17.09;100.00;97462.41;10458818;28;20063;-58
2022/06/23 08:03:00;;;;;;;13.40;8.43;;;;;;;17.71;100.00;97448.97;10457589;28;20079;-58
2022/06/23 08:08:01;;;;;;;8.48;5.70;;;;;;;18.23;100.00;97479.59;10475316;28;20057;-58
2022/06/23 08:13:18;;;;;;;8.27;5.60;;;;;;;18.22;99.27;97460.31;10453911;28;20502;-58
2022/06/23 08:18:32;;;;;;;6.47;4.57;;;;;;;18.23;96.96;97463.81;10419179;28;20059;-58
2022/06/23 08:23:37;;;;;;;8.60;5.18;;;;;;;18.00;96.51;97439.25;10446330;28;20040;-58
2022/06/23 08:28:38;;;;;;;8.40;5.50;;;;;;;17.93;95.77;97387.88;10419117;28;20578;-58
2022/06/23 08:33:37;;;;;;;10.57;6.10;;;;;;;17.80;95.37;97404.97;10451386;28;20063;-58
2022/06/23 08:38:51;;;;;;;9.63;4.88;;;;;;;17.72;92.56;97421.81;10445597;28;20033;-58
2022/06/23 08:44:05;;;;;;;9.63;5.93;;;;;;;18.07;94.95;97401.34;10459338;28;20455;-58
2022/06/23 08:49:14;;;;;;;8.55;5.97;;;;;;;18.47;92.43;97399.84;10448483;28;20067;-58
2022/06/23 08:54:55;;;;;;;9.07;5.47;;;;;;;18.87;91.13;97398.31;10435375;28;20064;-58
2022/06/23 09:00:06;;;;;;;8.63;6.03;;;;;;;19.09;89.78;97400.94;10421075;28;20539;-58
2022/06/23 09:05:24;;;;;;;10.90;6.60;;;;;;;19.48;89.75;97400.19;10426591;28;20066;-58
2022/06/23 09:10:41;;;;;;;13.38;7.82;;;;;;;19.61;84.27;97405.81;10438163;28;20720;-58
2022/06/23 09:16:07;;;;;;;10.63;6.65;;;;;;;19.77;84.65;97396.34;10425587;28;20059;-58
2022/06/23 09:21:18;;;;;;;10.85;6.30;;;;;;;20.06;82.51;97389.78;10458755;28;20787;-58
2022/06/23 09:26:32;;;;;;;9.07;5.95;;;;;;;20.45;81.28;97381.00;10459465;28;20066;-58
2022/06/23 09:31:47;;;;;;;10.23;5.95;;;;;;;21.07;79.55;97380.69;10446382;28;20067;-58
2022/06/23 09:37:25;;;;;;;11.45;6.43;;;;;;;21.44;74.44;97353.34;10425893;28;20460;-58
2022/06/23 09:42:42;;;;;;;12.45;5.82;;;;;;;21.76;73.89;97353.47;10441625;28;20491;-58
2022/06/23 09:48:18;;;;;;;10.10;6.15;;;;;;;22.01;73.49;97357.47;10472866;28;20052;-58
2022/06/23 09:53:42;;;;;;;9.02;6.15;;;;;;;21.90;70.31;97352.75;10429950;28;20068;-58
2022/06/23 09:58:50;;;;;;;12.85;8.13;;;;;;;21.60;71.41;97357.84;10458506;28;20479;-58
2022/06/23 10:04:10;;;;;;;9.67;6.83;;;;;;;21.46;71.62;97351.47;10441771;28;20063;-59
2022/06/23 10:09:40;;;;;;;10.23;6.25;;;;;;;21.29;69.67;97348.84;10477257;28;20112;-58
2022/06/23 10:14:58;;;;;;;16.48;10.75;;;;;;;21.11;69.01;97340.88;10467044;28;20442;-58
2022/06/23 10:20:23;;;;;;;8.48;5.60;;;;;;;21.03;70.01;97331.63;10456692;28;20054;-58
2022/06/23 10:26:04;;;;;;;8.13;5.90;;;;;;;21.33;70.47;97342.47;10451862;28;20056;-58
2022/06/23 10:31:16;;;;;;;9.65;5.30;;;;;;;21.70;65.14;97338.78;10420338;28;20606;-58
2022/06/23 10:36:54;;;;;;;7.40;5.25;;;;;;;22.23;62.46;97355.38;10455660;28;20067;-58
2022/06/23 10:42:16;;;;;;;10.63;6.68;;;;;;;22.14;64.66;97377.03;10458657;28;20067;-58
2022/06/23 10:47:48;;;;;;;11.40;6.25;;;;;;;21.76;69.65;97387.81;10472641;28;20075;-58
2022/06/23 10:52:50;;;;;;;7.53;5.00;;;;;;;20.89;71.46;97414.97;10448024;28;20082;-58
2022/06/23 10:57:55;;;;;;;10.55;5.55;;;;;;;20.99;71.17;97427.72;10452904;28;20074;-58
2022/06/23 11:03:09;;;;;;;7.53;4.97;;;;;;;21.19;69.15;97432.84;10419316;28;20067;-58
2022/06/23 11:08:32;;;;;;;4.97;3.75;;;;;;;21.18;67.17;97430.31;10442582;28;20064;-58
2022/06/23 11:13:40;;;;;;;5.80;3.85;;;;;;;21.15;68.21;97423.41;10459075;28;20060;-58
2022/06/23 11:18:48;;;;;;;5.40;3.67;;;;;;;21.00;69.40;97419.69;10457075;28;20067;-58
2022/06/23 11:23:58;;;;;;;4.67;3.57;;;;;;;20.59;72.17;97443.63;10458521;28;20079;-58
2022/06/23 11:29:27;;;;;;;5.22;3.75;;;;;;;20.64;72.07;97441.63;10457338;28;20075;-58
2022/06/23 11:34:41;;;;;;;7.45;3.88;;;;;;;20.71;71.76;97461.50;10455904;28;20432;-58
2022/06/23 11:40:06;;;;;;;5.95;3.60;;;;;;;20.59;72.52;97471.78;10434387;28;20052;-58
2022/06/23 11:45:14;;;;;;;5.80;3.97;;;;;;;20.44;72.63;97458.34;10439265;28;20064;-58
2022/06/23 11:50:21;;;;;;;6.23;3.80;;;;;;;20.35;73.03;97471.91;10458691;28;20070;-58
2022/06/23 11:55:38;;;;;;;5.75;3.47;;;;;;;20.25;74.02;97481.16;10456059;28;20680;-58
2022/06/23 12:01:03;;;;;;;6.82;3.40;;;;;;;19.99;71.84;97500.75;10453931;28;20078;-58
2022/06/23 12:06:29;;;;;;;5.50;3.40;;;;;;;19.87;73.61;97502.97;10436580;28;20051;-58
2022/06/23 12:11:31;;;;;;;6.88;4.43;;;;;;;19.59;74.28;97502.41;10448364;28;20056;-58
2022/06/23 12:16:31;;;;;;;7.80;3.90;;;;;;;19.47;75.16;97501.13;10455644;28;20066;-58
2022/06/23 12:21:38;;;;;;;5.72;3.45;;;;;;;19.31;75.90;97471.94;10434082;28;20455;-58
2022/06/23 12:26:46;;;;;;;7.85;3.63;;;;;;;19.54;75.41;97489.41;10435173;28;20074;-58
2022/06/23 12:32:10;;;;;;;7.75;3.78;;;;;;;19.67;75.74;97489.78;10437199;28;20075;-58
2022/06/23 12:37:22;;;;;;;5.82;3.83;;;;;;;19.90;74.97;97487.97;10436880;28;20495;-58
2022/06/23 12:42:39;;;;;;;4.85;3.55;;;;;;;20.21;74.76;97466.41;10441906;28;20455;-58
2022/06/23 12:48:19;;;;;;;5.32;3.63;;;;;;;20.66;71.91;97465.28;10436211;28;20129;-58
2022/06/23 12:53:36;;;;;;;6.88;4.10;;;;;;;21.09;70.08;97448.28;10427500;28;20048;-58
2022/06/23 12:58:46;;;;;;;6.35;4.10;;;;;;;21.41;68.47;97442.41;10439115;28;20059;-58
2022/06/23 13:03:55;;;;;;;7.63;3.70;;;;;;;21.73;67.05;97443.41;10448748;28;20673;-58
2022/06/23 13:09:17;;;;;;;6.80;3.92;;;;;;;22.02;66.82;97435.81;10481443;28;20521;-58
2022/06/23 13:14:31;;;;;;;5.85;3.47;;;;;;;22.66;63.99;97445.56;10432555;28;20458;-58
2022/06/23 13:19:40;;;;;;;5.85;3.45;;;;;;;23.12;61.69;97423.66;10417633;28;20447;-58
2022/06/23 13:24:43;;;;;;;5.80;3.88;;;;;;;23.61;60.42;97429.66;10429834;28;20059;-58
2022/06/23 13:29:54;;;;;;;5.57;3.45;;;;;;;23.64;59.74;97428.59;10422483;28;20076;-58
2022/06/23 13:35:01;;;;;;;4.70;3.63;;;;;;;23.49;59.74;97417.13;10405365;28;20064;-58
2022/06/23 13:40:20;;;;;;;6.30;3.38;;;;;;;23.69;59.26;97433.63;10422829;28;20060;-59
2022/06/23 13:45:33;;;;;;;9.25;4.28;;;;;;;23.66;59.92;97442.63;10422800;28;20061;-58
2022/06/23 13:50:59;;;;;;;9.52;4.38;;;;;;;23.28;60.79;97445.69;10442605;28;20070;-58
2022/06/23 13:56:21;;;;;;;5.30;3.90;;;;;;;22.49;64.75;97438.56;10451898;28;20068;-58
2022/06/23 14:01:35;;;;;;;5.22;3.88;;;;;;;22.60;65.38;97444.13;10441607;28;20052;-59
2022/06/23 14:06:35;;;;;;;7.78;4.53;;;;;;;22.54;65.36;97440.94;10418071;28;20063;-58
2022/06/23 14:11:50;;;;;;;8.30;4.70;;;;;;;22.54;65.68;97446.25;10414563;28;20115;-58
2022/06/23 14:17:19;;;;;;;4.70;3.90;;;;;;;22.57;64.86;97444.25;10427748;28;20086;-58
2022/06/23 14:22:20;;;;;;;7.85;4.28;;;;;;;22.54;65.01;97436.50;10445258;28;20089;-59
2022/06/23 14:27:49;;;;;;;5.85;3.88;;;;;;;22.65;64.80;97443.88;10434775;28;20484;-58
2022/06/23 14:33:27;;;;;;;5.32;4.13;;;;;;;22.60;65.69;97448.56;10427237;28;20103;-58
2022/06/23 14:38:31;;;;;;;6.82;4.50;;;;;;;22.69;65.94;97455.97;10436243;28;20063;-58
2022/06/23 14:43:57;;;;;;;6.47;4.55;;;;;;;22.93;65.17;97471.50;10399515;28;20072;-58
2022/06/23 14:49:36;;;;;;;5.55;3.28;;;;;;;23.23;61.49;97461.81;10415822;28;20518;-58
2022/06/23 14:54:46;;;;;;;6.13;4.22;;;;;;;23.20;61.57;97440.78;10413069;28;20392;-58
2022/06/23 15:00:11;;;;;;;6.00;4.15;;;;;;;23.01;61.42;97437.50;10450500;28;20582;-58
2022/06/23 15:05:28;;;;;;;4.68;3.67;;;;;;;22.65;61.16;97417.41;10457064;28;20075;-58
2022/06/23 15:10:49;;;;;;;5.22;3.70;;;;;;;22.37;62.60;97426.00;10432601;28;20078;-58
2022/06/23 15:15:53;;;;;;;8.65;3.70;;;;;;;22.57;63.49;97414.31;10447230;28;20079;-58
2022/06/23 15:26:35;;;;;;;6.78;3.67;;;;;;;22.82;63.41;97402.44;10433140;28;20067;-58
2022/06/23 15:31:38;;;;;;;4.35;3.05;;;;;;;22.59;62.93;97391.31;10429080;28;20542;-58
2022/06/23 15:36:52;;;;;;;3.97;3.40;;;;;;;22.60;63.89;97388.59;10429037;28;20063;-58
2022/06/23 15:42:03;;;;;;;5.35;3.75;;;;;;;23.13;63.67;97396.25;10434540;28;20527;-58
2022/06/23 15:47:17;;;;;;;5.97;3.47;;;;;;;23.58;61.79;97403.34;10427762;28;20064;-58
2022/06/23 15:52:46;;;;;;;5.30;3.30;;;;;;;23.90;58.74;97395.25;10433342;28;20063;-58
2022/06/23 15:57:55;;;;;;;5.55;3.63;;;;;;;24.26;57.48;97399.25;10432876;28;20099;-58
2022/06/23 16:02:56;;;;;;;3.85;3.10;;;;;;;24.69;57.24;97396.56;10424892;28;20580;-58
2022/06/23 16:08:01;;;;;;;6.80;4.07;;;;;;;24.84;55.72;97390.25;10432260;28;20059;-58
2022/06/23 16:13:11;;;;;;;5.15;3.60;;;;;;;24.45;55.72;97402.47;10422260;28;20056;-58
2022/06/23 16:18:21;;;;;;;5.47;3.60;;;;;;;23.98;56.46;97406.25;10432491;28;20060;-58
2022/06/23 16:23:34;;;;;;;6.97;3.92;;;;;;;23.72;58.32;97399.00;10428388;28;20466;-58
2022/06/23 16:28:47;;;;;;;4.32;3.50;;;;;;;23.80;57.92;97399.41;10447434;28;20074;-58
2022/06/23 16:33:59;;;;;;;5.32;3.42;;;;;;;23.40;58.70;97409.69;10439241;28;20059;-58
2022/06/23 16:39:13;;;;;;;5.72;3.50;;;;;;;23.10;60.34;97407.88;10446855;28;20071;-58
2022/06/23 16:44:24;;;;;;;6.00;3.83;;;;;;;22.98;61.40;97422.66;10416993;28;20060;-58
2022/06/23 16:49:30;;;;;;;4.30;3.47;;;;;;;22.71;62.15;97437.38;10420206;28;20067;-58
2022/06/23 16:54:44;;;;;;;5.82;3.42;;;;;;;22.44;64.91;97447.69;10417317;28;20440;-58
2022/06/23 17:00:09;;;;;;;5.80;3.90;;;;;;;22.03;67.60;97466.56;10433565;28;20452;-58
2022/06/23 17:05:28;;;;;;;6.50;4.35;;;;;;;21.51;70.59;97462.97;10419896;28;20060;-59
2022/06/23 17:10:27;;;;;;;;;;;;;;;21.40;72.97;97461.78;10433933;28;20151;-59
2022/06/23 17:15:31;;;;;;;7.53;4.53;;;;;;;21.37;73.27;97462.81;10415266;28;19947;-59
2022/06/23 17:20:38;;;;;;;5.95;4.78;;;;;;;21.44;71.71;97469.50;10394593;28;20058;-59
2022/06/23 17:25:47;;;;;;;7.90;4.80;;;;;;;21.45;71.93;97478.25;10423255;28;20059;-57
2022/06/23 17:31:08;;;;;;;7.70;5.20;;;;;;;21.20;72.08;97475.94;10430840;28;20068;-58
2022/06/23 17:36:13;;;;;;;6.75;4.40;;;;;;;21.04;72.56;97489.84;10438927;28;20056;-59
2022/06/23 17:46:55;;;;;;;8.75;5.30;;;;;;;20.76;73.48;97486.81;10421736;28;20068;-57
2022/06/23 17:51:58;;;;;;;9.60;5.80;;;;;;;20.63;73.96;97497.06;10420470;28;20079;-59
2022/06/23 17:57:01;;;;;;;13.65;9.23;;;;;;;20.64;74.09;97510.19;10412966;28;20553;-59
2022/06/23 18:02:12;;;;;;;13.68;8.60;;;;;;;20.64;74.58;97512.81;10428989;28;20066;-59
2022/06/23 18:07:50;;;;;;;9.68;7.88;;;;;;;20.58;74.97;97515.72;10445885;28;20060;-59
2022/06/23 18:13:24;;;;;;;9.85;6.32;;;;;;;20.57;75.37;97537.75;10414646;28;20075;-59
2022/06/23 18:18:46;;;;;;;8.15;5.53;;;;;;;20.55;75.48;97544.00;10388687;28;20076;-59
2022/06/23 18:23:48;;;;;;;26.20;9.32;;;;;;;20.54;75.72;97551.06;10420660;28;20093;-59
2022/06/23 18:28:50;;;;;;;18.15;8.70;;;;;;;20.53;76.19;97559.88;10439383;28;20059;-60
2022/06/23 18:34:24;;;;;;;17.92;8.23;;;;;;;20.52;76.62;97565.22;10433015;28;20063;-59
2022/06/23 18:39:40;;;;;;;9.95;5.63;;;;;;;20.46;76.52;97574.25;10451883;28;20063;-59
2022/06/23 18:44:50;;;;;;;11.88;6.00;;;;;;;20.40;76.61;97580.66;10451816;28;20055;-58
2022/06/23 18:50:00;;;;;;;8.98;5.43;;;;;;;20.34;77.22;97577.41;10421098;28;20502;-59
2022/06/23 18:55:05;;;;;;;8.80;6.13;;;;;;;20.20;77.31;97581.47;10436835;28;20076;-58
2022/06/23 19:00:15;;;;;;;11.13;6.63;;;;;;;20.03;78.06;97570.81;10439364;28;20056;-59
2022/06/23 19:05:17;;;;;;;9.02;6.50;;;;;;;19.86;78.47;97579.38;10434622;28;20068;-59
2022/06/23 19:10:28;;;;;;;8.88;6.13;;;;;;;19.68;79.51;97594.19;10423824;28;20065;-59
2022/06/23 19:15:37;;;;;;;8.00;5.90;;;;;;;19.43;80.65;97595.09;10450627;28;20056;-59
2022/06/23 19:20:39;;;;;;;;;;;;;;;19.14;81.67;97600.66;10432239;28;20448;-59
2022/06/23 19:25:56;;;;;;;8.35;5.65;;;;;;;18.88;82.83;97609.50;10438964;28;19993;-58
2022/06/23 19:31:18;;;;;;;9.15;5.60;;;;;;;18.71;83.31;97610.97;10448783;28;20080;-59
2022/06/23 19:36:32;;;;;;;9.07;6.78;;;;;;;18.60;83.86;97616.59;10418248;28;20068;-58
2022/06/23 19:41:50;;;;;;;9.52;6.78;;;;;;;18.48;84.03;97617.03;10422983;28;20056;-58
2022/06/23 19:46:52;;;;;;;9.02;6.57;;;;;;;18.36;84.30;97617.44;10430827;28;20075;-58
2022/06/23 19:51:55;;;;;;;10.85;6.95;;;;;;;18.26;84.67;97611.66;10421344;28;20063;-58
2022/06/23 19:57:19;;;;;;;10.35;6.63;;;;;;;18.18;84.99;97614.53;10425910;28;20055;-59
2022/06/23 20:02:37;;;;;;;10.93;6.90;;;;;;;18.02;85.75;97602.84;10421926;28;20119;-58
2022/06/23 20:07:38;;;;;;;13.48;7.53;;;;;;;17.95;86.04;97609.19;10440427;28;20082;-58
2022/06/23 20:12:41;;;;;;;14.25;7.55;;;;;;;17.77;86.81;97608.88;10463522;28;20073;-59
2022/06/23 20:17:52;;;;;;;10.82;7.45;;;;;;;17.67;87.36;97603.97;10458936;28;20074;-59
2022/06/23 20:23:09;;;;;;;12.60;7.90;;;;;;;17.54;87.91;97606.09;10432742;28;20051;-59
2022/06/23 20:28:44;;;;;;;11.63;8.50;;;;;;;17.44;88.34;97608.16;10432899;28;20067;-58
2022/06/23 20:33:43;;;;;;;12.38;7.72;;;;;;;17.33;88.77;97603.25;10423892;28;20563;-59
2022/06/23 20:39:18;;;;;;;12.35;8.38;;;;;;;17.27;89.26;97605.19;10427395;28;20439;-58
2022/06/23 20:44:49;;;;;;;13.73;8.60;;;;;;;17.08;91.42;97599.66;10413206;28;20055;-58
2022/06/23 20:50:16;;;;;;;14.05;9.25;;;;;;;16.93;91.98;97593.06;10432021;28;20063;-59
2022/06/23 20:55:34;;;;;;;14.68;10.20;;;;;;;16.83;92.45;97597.72;10472901;28;20458;-58
2022/06/23 21:00:49;;;;;;;12.90;9.20;;;;;;;16.55;93.94;97578.41;10444605;28;20863;-58
2022/06/23 21:06:25;;;;;;;17.48;9.98;;;;;;;16.44;95.09;97597.91;10415838;28;20071;-58
2022/06/23 21:11:34;;;;;;;17.17;9.48;;;;;;;16.37;95.34;97592.84;10401435;28;20157;-58
2022/06/23 21:16:43;;;;;;;13.45;9.00;;;;;;;16.32;95.17;97585.13;10498405;28;20063;-58
2022/06/23 21:21:53;;;;;;;18.45;9.90;;;;;;;16.28;95.26;97580.91;10498350;28;20541;-58
2022/06/23 21:26:55;;;;;;;13.30;9.75;;;;;;;16.23;95.51;97582.75;10474203;28;20467;-58
2022/06/23 21:32:20;;;;;;;13.68;9.27;;;;;;;16.19;95.43;97579.38;10454861;28;20486;-58
2022/06/23 21:37:23;;;;;;;20.23;10.55;;;;;;;16.13;95.43;97569.06;10454858;28;20059;-58
2022/06/23 21:42:35;;;;;;;15.98;9.98;;;;;;;16.08;95.52;97581.41;10455085;28;20052;-58
2022/06/23 21:47:40;;;;;;;17.92;10.95;;;;;;;16.04;95.69;97578.03;10413604;28;20063;-58
2022/06/23 21:52:57;;;;;;;15.70;10.88;;;;;;;16.03;95.78;97583.28;10414302;28;20052;-58
2022/06/23 21:58:11;;;;;;;30.02;11.07;;;;;;;16.03;95.95;97578.06;10421530;28;20063;-58
2022/06/23 22:03:13;;;;;;;18.83;10.90;;;;;;;15.97;95.96;97568.59;10430534;28;20142;-58
2022/06/23 22:08:53;;;;;;;16.95;11.40;;;;;;;15.92;96.14;97575.69;10433525;28;20058;-58
2022/06/23 22:13:58;;;;;;;16.80;11.48;;;;;;;15.88;96.47;97568.84;10468142;28;20048;-58
2022/06/23 22:19:08;;;;;;;19.90;11.68;;;;;;;15.83;96.36;97568.97;10444228;28;20060;-58
2022/06/23 22:30:21;;;;;;;17.90;11.63;;;;;;;15.69;96.52;97563.16;10455716;28;20095;-58
2022/06/23 22:35:34;;;;;;;18.90;11.48;;;;;;;15.62;96.32;97556.34;10462080;28;20458;-58
2022/06/23 22:40:33;;;;;;;20.73;12.43;;;;;;;15.59;96.55;97553.81;10443133;28;20067;-58
2022/06/23 22:45:45;;;;;;;18.35;10.73;;;;;;;15.51;96.49;97553.16;10460985;28;20868;-58
2022/06/23 22:50:44;;;;;;;19.40;11.73;;;;;;;15.45;96.61;97554.16;10461343;28;20063;-58
2022/06/23 22:55:59;;;;;;;;;;;;;;;15.35;96.97;97556.13;10453638;28;20020;-58
2022/06/23 23:01:10;;;;;;;21.77;12.30;;;;;;;15.17;98.26;97554.78;10444832;28;19950;-58
2022/06/23 23:06:28;;;;;;;23.48;13.93;;;;;;;15.08;98.33;97543.69;10459853;28;20059;-58
2022/06/23 23:11:33;;;;;;;23.60;13.68;;;;;;;15.12;98.61;97553.19;10454154;28;20058;-58
2022/06/23 23:16:39;;;;;;;23.95;14.05;;;;;;;15.11;98.54;97552.31;10493529;28;20055;-58
2022/06/23 23:21:42;;;;;;;21.67;12.57;;;;;;;15.15;99.47;97555.72;10436477;28;20059;-58
2022/06/23 23:26:46;;;;;;;18.67;12.20;;;;;;;14.98;100.00;97563.94;10448166;28;20059;-58
2022/06/23 23:31:45;;;;;;;17.38;11.02;;;;;;;14.93;100.00;97565.78;10448179;28;20072;-58
2022/06/23 23:36:43;;;;;;;;;;;;;;;14.87;100.00;97560.69;10457645;28;20035;-58
2022/06/23 23:41:43;;;;;;;23.60;13.07;;;;;;;14.83;100.00;97559.91;10459224;28;19911;-58
2022/06/23 23:46:52;;;;;;;26.83;14.02;;;;;;;14.81;100.00;97557.31;10457651;28;20947;-58
2022/06/23 23:51:53;;;;;;;24.85;13.32;;;;;;;14.91;100.00;97564.97;10464386;28;20051;-58
2022/06/23 23:56:52;;;;;;;29.20;15.90;;;;;;;14.99;100.00;97560.41;10468960;28;20054;-58
